Accueil
METAR-TAF:

METAR-TAF

Aéroports :

Aéroport Franjo-Tuđman de Zagreb

Zagreb, Croatie

latitude: 45-44N, longitude: 016-04E, altitude: 106 m

Observation

Le bulletin a été fait il y a 35 minutes, à 13:30 UTC
Vent 10 kt de nord-est, variant entre nord/nord-ouest et est/sud-est
Température 24°C
Humidité 38%
Pression 1020 hPa
Visibilité 10 km ou plus
pas de nuages en-dessous de 1500 mètres et pas de cumulonimbus.

METAR: LDZA 131330Z 05010KT 330V110 CAVOK 24/09 Q1020 NOSIG

Heure: 16:05 (14:05 UTC)

Prévision

Le bulletin a été fait il y a 2 heures et 40 minutes, à 11:25 UTC
Prévision valable du 13 à 12 UTC au 14 à 12 UTC
Vent 7 kt de nord-est
Visibilité 10 km ou plus
pas de nuages en-dessous de 1500 mètres et pas de cumulonimbus.
Evoluant progressivement
du 13 à 14 UTC au 13 à 16 UTC
Vent 2 kt de direction variable

TAF: LDZA 131125Z 1312/1412 05007KT CAVOK TX25/1313Z TN11/1403Z BECMG 1314/1316 VRB02KT

Observations et prévisions météorologiques de plus de 4000 aéroports (messages METAR et TAF).

Les stations disponibles sont représentées par des disques jaunes et rouges sur la carte.

Passer la souris dessus pour voir le nom de la station.

Cliquer dessus pour voir les observations et prévisions météorologiques.

Pour changer de carte: cliquez sur les boutons verts avec une croix noire pour zoomer, sur le bouton vert avec un tiret pour effectuer un zoom arrière, ou sur les flèches vertes pour les cartes adjacentes.


METAR-TAF: